Time;durP1;ratioP1;P1;durP2;ratioP2;P2;SDS_P1;SDS_P2;PMS_P1;PMS_P2;Temp;Humidity;BMP_temperature;BMP_pressure;BME280_temperature;BME280_humidity;BME280_pressure;Samples;Min_cycle;Max_cycle;Signal;HPM_P1;HPM_P2
2022/05/24 00:04:12;;;;;;;24.73;4.28;;;14.10;99.90;;;;;;20637500;28;20046;-40
2022/05/24 00:14:13;;;;;;;4.13;2.50;;;14.00;99.90;;;;;;20643401;28;20049;-41
2022/05/24 00:24:14;;;;;;;4.85;2.33;;;14.20;99.90;;;;;;20641667;28;20042;-40
2022/05/24 00:34:15;;;;;;;6.97;1.90;;;14.30;99.90;;;;;;20640636;28;20054;-41
2022/05/24 00:44:23;;;;;;;3.92;2.28;;;14.30;99.90;;;;;;20650620;28;20785;-41
2022/05/24 00:54:27;;;;;;;9.32;2.63;;;14.20;99.90;;;;;;20719993;28;20951;-41
2022/05/24 01:04:28;;;;;;;3.42;1.60;;;14.20;99.90;;;;;;20731955;28;20181;-40
2022/05/24 01:14:30;;;;;;;3.70;1.63;;;14.20;99.90;;;;;;20723084;28;20543;-40
2022/05/24 01:24:44;;;;;;;4.88;2.67;;;14.20;99.90;;;;;;20732161;28;20045;-41
2022/05/24 01:45:42;;;;;;;5.13;2.08;;;14.00;99.90;;;;;;20680713;28;21389;-41
2022/05/24 01:55:48;;;;;;;5.95;2.75;;;13.90;99.90;;;;;;20714695;28;20053;-41
2022/05/24 02:05:49;;;;;;;4.03;1.63;;;13.80;99.90;;;;;;20719879;28;20046;-40
2022/05/24 02:15:53;;;;;;;3.47;1.60;;;13.70;99.90;;;;;;20709089;28;20045;-41
2022/05/24 02:25:57;;;;;;;3.70;1.52;;;13.60;99.90;;;;;;20714377;28;20049;-40
2022/05/24 02:35:59;;;;;;;4.68;1.67;;;13.60;99.90;;;;;;20720453;28;20576;-41
2022/05/24 02:46:00;;;;;;;5.45;1.33;;;13.60;99.90;;;;;;20706249;28;20049;-41
2022/05/24 02:56:05;;;;;;;8.13;1.25;;;13.50;99.90;;;;;;20717696;28;20050;-41
2022/05/24 03:06:06;;;;;;;4.35;1.65;;;13.40;99.90;;;;;;20712196;28;20053;-41
2022/05/24 03:16:13;;;;;;;6.07;1.58;;;13.30;99.90;;;;;;20713079;28;20484;-41
2022/05/24 03:26:14;;;;;;;7.53;2.17;;;13.20;99.90;;;;;;20696076;28;20042;-40
2022/05/24 03:36:15;;;;;;;10.95;4.18;;;13.30;99.90;;;;;;20709207;28;20053;-41
2022/05/24 03:46:17;;;;;;;3.72;1.63;;;13.30;99.90;;;;;;20687926;28;20412;-41
2022/05/24 03:56:18;;;;;;;3.45;1.80;;;13.30;99.90;;;;;;20715328;28;20045;-40
2022/05/24 04:06:19;;;;;;;4.70;2.05;;;13.40;99.90;;;;;;20711183;28;20061;-40
2022/05/24 04:16:21;;;;;;;5.65;2.53;;;13.40;99.90;;;;;;20716912;28;20052;-40
2022/05/24 04:26:22;;;;;;;5.85;2.20;;;13.30;99.90;;;;;;20712187;28;20041;-40
2022/05/24 04:36:26;;;;;;;5.57;2.13;;;13.30;99.90;;;;;;20705044;28;20045;-40
2022/05/24 04:47:07;;;;;;;5.05;1.83;;;13.40;99.90;;;;;;20713967;28;20056;-40
2022/05/24 04:56:48;;;;;;;4.10;2.80;;;13.40;99.90;;;;;;20704813;28;20045;-41
2022/05/24 05:06:49;;;;;;;5.47;2.72;;;13.20;99.90;;;;;;20687173;28;20042;-40
2022/05/24 05:16:50;;;;;;;7.00;1.80;;;13.30;99.90;;;;;;20710318;28;20080;-40
2022/05/24 05:26:52;;;;;;;4.32;1.60;;;13.40;99.90;;;;;;20716891;28;20481;-40
2022/05/24 05:36:52;;;;;;;2.63;0.75;;;13.30;99.90;;;;;;20730357;28;20053;-40
2022/05/24 05:46:54;;;;;;;2.03;1.05;;;13.20;99.90;;;;;;20720600;28;20576;-40
2022/05/24 05:56:57;;;;;;;4.00;1.95;;;13.20;99.90;;;;;;20709719;28;20409;-40
2022/05/24 06:06:59;;;;;;;5.18;1.10;;;13.10;99.90;;;;;;20690750;28;20320;-40
2022/05/24 06:17:00;;;;;;;1.85;1.20;;;13.10;99.90;;;;;;20707892;28;20049;-40
2022/05/24 06:27:02;;;;;;;2.33;1.30;;;13.10;99.90;;;;;;20699967;28;20493;-41
2022/05/24 06:37:06;;;;;;;5.10;1.35;;;13.10;99.90;;;;;;20684693;28;20060;-40
2022/05/24 06:47:07;;;;;;;4.05;1.38;;;13.40;99.90;;;;;;20714569;28;20061;-40
2022/05/24 06:57:08;;;;;;;5.03;1.08;;;13.70;99.90;;;;;;20711658;28;20048;-40
2022/05/24 07:07:10;;;;;;;2.00;0.82;;;13.70;99.90;;;;;;20711860;28;20048;-40
2022/05/24 07:17:11;;;;;;;2.45;1.13;;;13.70;99.90;;;;;;20697707;28;20041;-40
2022/05/24 07:27:13;;;;;;;3.90;1.05;;;13.90;99.90;;;;;;20714721;28;20518;-40
2022/05/24 07:37:16;;;;;;;1.73;0.70;;;13.80;99.90;;;;;;20707012;28;20060;-40
2022/05/24 07:47:17;;;;;;;6.47;0.45;;;13.60;99.90;;;;;;20665904;28;20510;-40
2022/05/24 07:57:19;;;;;;;0.77;0.20;;;13.90;99.90;;;;;;20707410;28;20046;-40
2022/05/24 08:07:20;;;;;;;2.33;0.85;;;13.90;99.90;;;;;;20708450;28;20064;-40
2022/05/24 08:17:21;;;;;;;1.80;0.47;;;13.50;99.90;;;;;;20692468;28;20049;-40
2022/05/24 08:27:24;;;;;;;0.90;0.28;;;13.60;99.90;;;;;;20703143;28;24954;-41
2022/05/24 08:37:26;;;;;;;1.55;0.20;;;13.80;99.90;;;;;;20705325;28;20822;-40
2022/05/24 08:57:57;;;;;;;0.65;0.20;;;14.50;99.90;;;;;;20697728;28;20258;-40
2022/05/24 09:08:17;;;;;;;0.88;0.20;;;14.40;99.90;;;;;;20724141;28;20404;-40
2022/05/24 09:18:40;;;;;;;0.45;0.20;;;14.50;99.90;;;;;;20706633;28;20313;-40
2022/05/24 09:28:49;;;;;;;0.88;0.60;;;14.40;99.90;;;;;;20706207;28;20428;-40
2022/05/24 09:38:50;;;;;;;1.13;0.52;;;14.10;99.90;;;;;;20686466;28;20091;-40
2022/05/24 09:48:59;;;;;;;1.38;0.40;;;14.50;99.90;;;;;;20710837;28;20445;-40
2022/05/24 09:59:19;;;;;;;1.63;0.80;;;14.60;99.90;;;;;;20693194;28;20410;-40
2022/05/24 10:09:26;;;;;;;0.57;0.32;;;14.50;99.90;;;;;;20662947;28;20049;-40
2022/05/24 10:19:40;;;;;;;2.83;1.57;;;14.40;99.90;;;;;;20704059;28;20464;-41
2022/05/24 10:30:23;;;;;;;3.53;0.50;;;14.00;99.90;;;;;;20682033;28;20048;-40
2022/05/24 10:40:41;;;;;;;1.70;0.60;;;13.70;99.90;;;;;;20607893;28;20494;-40
2022/05/24 10:50:52;;;;;;;1.30;0.60;;;13.80;99.90;;;;;;20720406;28;20042;-40
2022/05/24 11:01:03;;;;;;;1.65;0.80;;;13.90;99.90;;;;;;20718301;28;20038;-40
2022/05/24 11:11:10;;;;;;;0.98;0.30;;;14.90;99.90;;;;;;20721736;28;20077;-40
2022/05/24 11:21:25;;;;;;;1.20;0.40;;;15.60;99.90;;;;;;20713618;28;20372;-40
2022/05/24 11:31:35;;;;;;;1.60;0.50;;;16.00;99.90;;;;;;20694309;28;20426;-40
2022/05/24 11:41:37;;;;;;;0.55;0.30;;;16.00;99.90;;;;;;20687000;28;21337;-40
2022/05/24 11:51:41;;;;;;;0.77;0.47;;;15.70;99.90;;;;;;20701366;28;20073;-40
2022/05/24 12:01:46;;;;;;;7.22;0.40;;;15.70;99.90;;;;;;20699060;28;20681;-40
2022/05/24 12:12:08;;;;;;;0.20;0.10;;;15.60;99.90;;;;;;20704883;28;20053;-40
2022/05/24 12:22:32;;;;;;;0.75;0.38;;;16.40;99.90;;;;;;20703503;28;22046;-41
2022/05/24 12:32:36;;;;;;;0.65;0.25;;;16.40;99.90;;;;;;20697637;28;20654;-41
2022/05/24 12:42:52;;;;;;;1.65;0.13;;;16.50;99.90;;;;;;20702805;28;20037;-40
2022/05/24 12:53:02;;;;;;;0.20;0.10;;;16.70;99.90;;;;;;20695398;28;20054;-41
2022/05/24 13:03:07;;;;;;;0.73;0.35;;;17.40;99.90;;;;;;20681132;28;20042;-41
2022/05/24 13:13:20;;;;;;;0.30;0.10;;;17.40;99.90;;;;;;20692316;28;21063;-41
2022/05/24 13:23:40;;;;;;;0.98;0.20;;;17.60;99.90;;;;;;20702734;28;21412;-41
2022/05/24 13:33:49;;;;;;;0.50;0.20;;;17.50;99.90;;;;;;20697429;28;20041;-41
2022/05/24 13:44:25;;;;;;;0.93;0.10;;;17.40;99.90;;;;;;20710593;28;20117;-40
2022/05/24 13:54:34;;;;;;;0.65;0.20;;;17.40;99.90;;;;;;20721627;28;20046;-40
2022/05/24 14:04:39;;;;;;;0.28;0.10;;;17.50;99.90;;;;;;20716366;28;20319;-41
2022/05/24 14:14:43;;;;;;;0.00;0.00;;;17.30;99.90;;;;;;20701388;28;20680;-40
2022/05/24 14:24:44;;;;;;;0.20;0.15;;;17.80;99.90;;;;;;20696791;28;20053;-40
2022/05/24 14:34:45;;;;;;;0.50;0.20;;;17.50;99.90;;;;;;20699498;28;20046;-41
2022/05/24 14:44:47;;;;;;;0.20;0.00;;;17.10;99.90;;;;;;20690574;28;20382;-41
2022/05/24 14:54:49;;;;;;;0.20;0.10;;;17.40;99.90;;;;;;20691288;28;20045;-40
2022/05/24 15:04:50;;;;;;;0.10;0.00;;;17.30;99.90;;;;;;20675771;28;20046;-41
2022/05/24 15:25:16;;;;;;;0.50;0.30;;;16.80;99.90;;;;;;20695724;28;20084;-40
2022/05/24 15:35:17;;;;;;;0.40;0.15;;;16.80;99.90;;;;;;20694147;28;20049;-41
2022/05/24 15:45:18;;;;;;;1.00;0.38;;;17.20;99.90;;;;;;20693277;28;23314;-40
2022/05/24 15:55:20;;;;;;;0.10;0.00;;;17.50;99.90;;;;;;20647900;28;20080;-41
2022/05/24 16:15:49;;;;;;;0.10;0.08;;;17.10;99.90;;;;;;20689588;28;20061;-40
2022/05/24 16:25:51;;;;;;;0.43;0.10;;;16.80;99.90;;;;;;20706165;28;20054;-40
2022/05/24 16:35:52;;;;;;;1.83;0.10;;;16.50;99.90;;;;;;20689433;28;20302;-40
2022/05/24 16:45:53;;;;;;;0.73;0.25;;;16.70;99.90;;;;;;20680644;28;20038;-40
2022/05/24 17:06:14;;;;;;;1.08;0.20;;;16.40;99.90;;;;;;20706058;28;20614;-40
2022/05/24 17:16:16;;;;;;;0.55;0.10;;;16.50;99.90;;;;;;20690617;28;20184;-40
2022/05/24 17:26:17;;;;;;;0.25;0.10;;;16.30;99.90;;;;;;20711728;28;20050;-40
2022/05/24 17:36:18;;;;;;;0.93;0.40;;;16.30;99.90;;;;;;20717346;28;20691;-40
2022/05/24 17:46:19;;;;;;;0.43;0.10;;;16.10;99.90;;;;;;20712684;28;20096;-40
2022/05/24 17:56:20;;;;;;;1.88;0.20;;;16.00;99.90;;;;;;20710657;28;20042;-40
2022/05/24 18:06:21;;;;;;;0.73;0.20;;;15.80;99.90;;;;;;20707170;28;20050;-40
2022/05/24 18:16:22;;;;;;;1.10;0.45;;;15.70;99.90;;;;;;20711166;28;20058;-40
2022/05/24 18:36:55;;;;;;;0.75;0.40;;;15.40;99.90;;;;;;20657918;28;20405;-40
2022/05/24 18:46:56;;;;;;;0.60;0.20;;;15.30;99.90;;;;;;20693820;28;20041;-40
2022/05/24 18:56:58;;;;;;;0.35;0.17;;;15.10;99.90;;;;;;20697857;28;20053;-40
2022/05/24 19:07:18;;;;;;;0.52;0.20;;;15.00;99.90;;;;;;20695448;28;20038;-40
2022/05/24 19:17:22;;;;;;;0.43;0.20;;;14.80;99.90;;;;;;20697495;28;20052;-40
2022/05/24 19:27:25;;;;;;;0.55;0.38;;;14.70;99.90;;;;;;20685697;28;20038;-40
2022/05/24 19:37:27;;;;;;;0.70;0.30;;;14.50;99.90;;;;;;20689507;28;20045;-40
2022/05/24 19:47:28;;;;;;;0.63;0.30;;;14.30;99.90;;;;;;20691450;28;20523;-40
2022/05/24 19:57:30;;;;;;;1.23;0.60;;;14.10;99.90;;;;;;20693710;28;20397;-40
2022/05/24 20:07:31;;;;;;;1.65;0.50;;;13.90;99.90;;;;;;20686469;28;20068;-40
2022/05/24 20:17:32;;;;;;;1.48;0.40;;;13.60;99.90;;;;;;20704588;28;20053;-40
2022/05/24 20:27:34;;;;;;;0.82;0.30;;;13.50;99.90;;;;;;20689899;28;20395;-40
2022/05/24 20:37:39;;;;;;;0.73;0.30;;;13.40;99.90;;;;;;20686294;28;20458;-40
2022/05/24 20:47:40;;;;;;;1.30;0.47;;;13.20;99.90;;;;;;20672266;28;20170;-40
2022/05/24 20:57:41;;;;;;;1.48;0.70;;;13.10;99.90;;;;;;20686032;28;20501;-40
2022/05/24 21:07:42;;;;;;;1.15;0.30;;;12.90;99.90;;;;;;20703488;28;20045;-40
2022/05/24 21:17:43;;;;;;;1.75;0.68;;;12.80;99.90;;;;;;20693032;28;20516;-40
2022/05/24 21:28:05;;;;;;;1.85;0.80;;;12.70;99.90;;;;;;20688980;28;20811;-40
2022/05/24 21:38:08;;;;;;;2.33;1.23;;;12.60;99.90;;;;;;20716590;28;20042;-40
2022/05/24 21:48:13;;;;;;;1.75;0.73;;;12.50;99.90;;;;;;20713199;28;20053;-40
2022/05/24 21:58:15;;;;;;;1.25;0.52;;;12.50;99.90;;;;;;20703528;28;20046;-40
2022/05/24 22:08:17;;;;;;;1.27;0.82;;;12.50;99.90;;;;;;20688784;28;20046;-40
2022/05/24 22:18:18;;;;;;;1.73;0.90;;;12.50;99.90;;;;;;20697573;28;20496;-40
2022/05/24 22:28:19;;;;;;;2.10;1.08;;;12.40;99.90;;;;;;20697938;28;20319;-40
2022/05/24 22:38:21;;;;;;;3.45;0.63;;;12.30;99.90;;;;;;20699195;28;20512;-40
2022/05/24 22:48:22;;;;;;;1.63;0.73;;;12.30;99.90;;;;;;20668829;28;21039;-40
2022/05/24 22:58:24;;;;;;;2.13;0.65;;;12.30;99.90;;;;;;20693277;28;20200;-40
2022/05/24 23:08:26;;;;;;;2.38;1.20;;;12.30;99.90;;;;;;20700871;28;20646;-40
2022/05/24 23:18:28;;;;;;;1.42;0.55;;;12.10;99.90;;;;;;20688936;28;20623;-40
2022/05/24 23:28:29;;;;;;;3.67;1.05;;;12.10;99.90;;;;;;20682474;28;20042;-40
2022/05/24 23:38:30;;;;;;;2.25;1.10;;;11.90;99.90;;;;;;20675651;28;20769;-40
2022/05/24 23:48:31;;;;;;;3.05;1.10;;;11.80;99.90;;;;;;20677502;28;20414;-40
2022/05/24 23:58:32;;;;;;;1.27;0.50;;;11.80;99.90;;;;;;20665304;28;20042;-40
